createdAt,value
2019-05-21T00:00:03.112Z,14.38
2019-05-21T00:05:02.944Z,13.70
2019-05-21T00:10:03.382Z,12.40
2019-05-21T00:15:02.914Z,12.82
2019-05-21T00:20:03.458Z,16.73
2019-05-21T00:25:02.978Z,12.03
2019-05-21T00:30:02.775Z,14.18
2019-05-21T00:35:03.509Z,12.80
2019-05-21T00:40:03.063Z,15.75
2019-05-21T00:45:02.584Z,15.50
2019-05-21T00:50:03.149Z,15.23
2019-05-21T00:55:02.663Z,14.07
2019-05-21T01:00:03.248Z,14.80
2019-05-21T01:05:02.834Z,16.55
2019-05-21T01:10:03.387Z,17.98
2019-05-21T01:15:03.015Z,13.75
2019-05-21T01:20:02.527Z,14.18
2019-05-21T01:25:03.076Z,13.83
2019-05-21T01:30:02.583Z,12.05
2019-05-21T01:35:16.016Z,13.35
2019-05-21T01:40:02.868Z,12.00
2019-05-21T01:45:03.414Z,12.53
2019-05-21T01:50:02.918Z,12.20
2019-05-21T01:55:03.481Z,11.08
2019-05-21T02:00:02.989Z,12.53
2019-05-21T02:05:02.517Z,10.68
2019-05-21T02:10:03.060Z,12.55
2019-05-21T02:15:02.586Z,10.60
2019-05-21T02:20:03.042Z,11.55
2019-05-21T02:25:02.549Z,10.40
2019-05-21T02:30:03.699Z,11.50
2019-05-21T02:35:02.503Z,9.15
2019-05-21T02:40:03.061Z,10.58
2019-05-21T02:45:02.582Z,9.28
2019-05-21T02:50:03.148Z,11.63
2019-05-21T02:55:02.684Z,10.68
2019-05-21T03:00:03.308Z,11.73
2019-05-21T03:05:02.905Z,12.50
2019-05-21T03:10:03.487Z,12.15
2019-05-21T03:15:02.981Z,10.18
2019-05-21T03:20:02.509Z,12.45
2019-05-21T03:25:03.119Z,15.10
2019-05-21T03:30:02.742Z,13.05
2019-05-21T03:35:03.224Z,13.88
2019-05-21T03:40:02.787Z,11.08
2019-05-21T03:45:07.350Z,11.33
2019-05-21T03:50:02.500Z,11.93
2019-05-21T03:55:03.551Z,11.50
2019-05-21T04:00:03.188Z,10.88
2019-05-21T04:05:02.702Z,9.00
2019-05-21T04:10:03.317Z,10.28
2019-05-21T04:15:02.902Z,10.10
2019-05-21T04:20:03.431Z,10.18
2019-05-21T04:25:02.945Z,9.50
2019-05-21T04:30:03.092Z,12.88
2019-05-21T04:35:02.591Z,8.83
2019-05-21T04:40:03.052Z,9.28
2019-05-21T04:45:02.559Z,8.45
2019-05-21T04:50:03.052Z,11.12
2019-05-21T04:55:02.544Z,10.45
2019-05-21T05:00:03.002Z,10.48
2019-05-21T05:05:02.486Z,9.50
2019-05-21T05:10:03.036Z,8.83
2019-05-21T05:15:02.563Z,10.23
2019-05-21T05:20:03.041Z,8.63
2019-05-21T05:25:02.531Z,10.78
2019-05-21T05:30:03.065Z,9.20
2019-05-21T05:35:02.598Z,12.55
2019-05-21T05:40:03.163Z,11.05
2019-05-21T05:45:02.646Z,9.28
2019-05-21T05:50:02.384Z,0
2019-05-21T05:55:02.920Z,10.68
2019-05-21T06:00:03.373Z,10.98
2019-05-21T06:05:02.922Z,11.08
2019-05-21T06:10:02.555Z,10.32
2019-05-21T06:15:03.369Z,13.95
2019-05-21T06:20:02.990Z,8.98
2019-05-21T06:25:02.596Z,10.80
2019-05-21T06:30:03.159Z,9.83
2019-05-21T06:35:02.690Z,11.28
2019-05-21T06:40:03.253Z,9.23
2019-05-21T06:45:03.485Z,9.93
2019-05-21T06:50:03.203Z,11.40
2019-05-21T06:55:02.708Z,8.83
2019-05-21T07:00:03.285Z,8.20
2019-05-21T07:05:02.776Z,11.57
2019-05-21T07:10:03.336Z,10.95
2019-05-21T07:15:02.844Z,8.95
2019-05-21T07:20:03.402Z,10.25
2019-05-21T07:25:02.913Z,8.75
2019-05-21T07:30:03.461Z,8.70
2019-05-21T07:35:02.986Z,8.45
2019-05-21T07:40:02.503Z,10.08
2019-05-21T07:45:03.045Z,9.40
2019-05-21T07:50:02.569Z,9.73
2019-05-21T07:55:03.132Z,10.68
2019-05-21T08:00:02.637Z,11.33
2019-05-21T08:05:03.203Z,10.68
2019-05-21T08:10:02.871Z,10.25
2019-05-21T08:15:03.364Z,10.13
2019-05-21T08:20:09.231Z,0
2019-05-21T08:25:02.622Z,9.35
2019-05-21T08:30:03.147Z,9.80
2019-05-21T08:35:02.848Z,9.33
2019-05-21T08:40:03.433Z,12.33
2019-05-21T08:45:03.717Z,9.53
2019-05-21T08:50:02.562Z,8.20
2019-05-21T08:55:03.102Z,9.50
2019-05-21T09:00:02.645Z,13.38
2019-05-21T09:05:03.184Z,10.32
2019-05-21T09:10:02.695Z,9.15
2019-05-21T09:15:03.237Z,9.78
2019-05-21T09:20:02.863Z,11.12
2019-05-21T09:25:04.017Z,9.50
2019-05-21T09:30:02.746Z,11.48
2019-05-21T09:35:03.291Z,10.72
2019-05-21T09:40:02.906Z,10.80
2019-05-21T09:45:03.460Z,11.25
2019-05-21T09:50:03.409Z,11.33
2019-05-21T09:55:03.409Z,14.50
2019-05-21T10:00:03.620Z,11.05
2019-05-21T10:05:02.464Z,10.55
2019-05-21T10:10:03.017Z,10.10
2019-05-21T10:15:02.532Z,12.90
2019-05-21T10:20:03.020Z,11.88
2019-05-21T10:25:02.482Z,10.20
2019-05-21T10:30:03.112Z,11.12
2019-05-21T10:35:03.240Z,10.82
2019-05-21T10:40:03.414Z,10.43
2019-05-21T10:45:02.935Z,10.08
2019-05-21T10:50:03.468Z,11.08
2019-05-21T10:55:03.001Z,12.63
2019-05-21T11:00:02.522Z,10.05
2019-05-21T11:05:03.069Z,11.28
2019-05-21T11:10:02.764Z,9.50
2019-05-21T11:15:03.357Z,8.70
2019-05-21T11:20:02.864Z,10.25
2019-05-21T11:25:03.396Z,9.28
2019-05-21T11:30:02.925Z,9.18
2019-05-21T11:35:03.470Z,9.10
2019-05-21T11:40:02.985Z,9.83
2019-05-21T11:45:02.556Z,9.35
2019-05-21T11:50:03.167Z,8.45
2019-05-21T11:55:02.612Z,8.18
2019-05-21T12:00:03.117Z,7.12
2019-05-21T12:05:02.645Z,8.70
2019-05-21T12:10:03.107Z,7.80
2019-05-21T12:15:02.610Z,9.40
2019-05-21T12:20:03.155Z,9.10
2019-05-21T12:25:02.668Z,9.68
2019-05-21T12:30:03.220Z,8.15
2019-05-21T12:35:02.870Z,9.15
2019-05-21T12:40:02.473Z,10.55
2019-05-21T12:45:03.026Z,9.65
2019-05-21T12:50:02.537Z,9.60
2019-05-21T12:55:02.986Z,8.48
2019-05-21T13:00:01.697Z,0
2019-05-21T13:05:03.261Z,9.10
2019-05-21T13:10:02.773Z,9.90
2019-05-21T13:15:03.313Z,13.22
2019-05-21T13:20:04.011Z,13.40
2019-05-21T13:25:02.974Z,10.68
2019-05-21T13:30:02.604Z,8.63
2019-05-21T13:35:03.481Z,9.30
2019-05-21T13:40:03.096Z,8.40
2019-05-21T13:45:02.651Z,9.25
2019-05-21T13:50:03.142Z,7.53
2019-05-21T13:55:02.654Z,8.53
2019-05-21T14:00:03.135Z,6.50
2019-05-21T14:05:03.163Z,6.55
2019-05-21T14:10:14.008Z,8.68
2019-05-21T14:15:03.306Z,5.37
2019-05-21T14:20:02.867Z,7.05
2019-05-21T14:25:03.389Z,7.00
2019-05-21T14:30:02.885Z,7.70
2019-05-21T14:35:03.448Z,7.17
2019-05-21T14:40:02.973Z,7.40
2019-05-21T14:45:02.515Z,8.15
2019-05-21T14:50:03.025Z,8.93
2019-05-21T14:55:03.299Z,9.45
2019-05-21T15:00:02.618Z,8.85
2019-05-21T15:05:03.120Z,7.33
2019-05-21T15:10:02.657Z,8.43
2019-05-21T15:15:03.323Z,8.78
2019-05-21T15:20:03.139Z,8.88
2019-05-21T15:25:02.645Z,8.05
2019-05-21T15:30:03.217Z,7.10
2019-05-21T15:35:02.766Z,7.95
2019-05-21T15:40:03.254Z,7.70
2019-05-21T15:45:02.781Z,6.97
2019-05-21T15:50:03.339Z,6.20
2019-05-21T15:55:06.758Z,0
2019-05-21T16:00:02.923Z,7.65
2019-05-21T16:05:03.447Z,6.03
2019-05-21T16:10:02.941Z,5.65
2019-05-21T16:15:03.550Z,6.22
2019-05-21T16:20:03.319Z,6.55
2019-05-21T16:25:02.841Z,6.17
2019-05-21T16:30:03.385Z,7.08
2019-05-21T16:35:02.921Z,6.60
2019-05-21T16:40:03.493Z,8.30
2019-05-21T16:45:02.923Z,10.45
2019-05-21T16:50:03.564Z,8.90
2019-05-21T16:55:03.190Z,8.60
2019-05-21T17:00:02.671Z,7.92
2019-05-21T17:05:03.307Z,9.15
2019-05-21T17:10:02.839Z,8.88
2019-05-21T17:15:03.393Z,8.65
2019-05-21T17:20:03.256Z,9.93
2019-05-21T17:25:02.939Z,10.08
2019-05-21T17:30:03.523Z,9.43
2019-05-21T17:35:03.004Z,9.08
2019-05-21T17:40:02.509Z,10.35
2019-05-21T17:45:03.075Z,10.98
2019-05-21T17:50:02.607Z,10.35
2019-05-21T17:55:03.137Z,9.50
2019-05-21T18:00:02.659Z,9.83
2019-05-21T18:05:03.205Z,8.50
2019-05-21T18:10:02.691Z,8.05
2019-05-21T18:15:03.295Z,9.03
2019-05-21T18:20:02.789Z,6.72
2019-05-21T18:25:03.354Z,8.10
2019-05-21T18:30:03.924Z,7.70
2019-05-21T18:35:03.036Z,7.92
2019-05-21T18:40:01.743Z,0
2019-05-21T18:45:03.276Z,7.40
2019-05-21T18:50:02.782Z,7.35
2019-05-21T18:55:03.229Z,6.83
2019-05-21T19:00:02.756Z,9.15
2019-05-21T19:05:03.306Z,9.38
2019-05-21T19:10:02.847Z,9.63
2019-05-21T19:15:03.398Z,10.40
2019-05-21T19:20:02.950Z,12.35
2019-05-21T19:25:02.422Z,12.05
2019-05-21T19:30:02.952Z,9.40
2019-05-21T19:35:03.425Z,12.40
2019-05-21T19:40:02.929Z,15.78
2019-05-21T19:45:03.485Z,12.33
2019-05-21T19:50:03.086Z,14.33
2019-05-21T19:55:02.617Z,14.55
2019-05-21T20:00:03.155Z,19.15
2019-05-21T20:05:02.680Z,17.90
2019-05-21T20:10:03.236Z,15.00
2019-05-21T20:15:02.682Z,15.93
2019-05-21T20:20:03.195Z,14.40
2019-05-21T20:25:02.681Z,17.60
2019-05-21T20:30:12.178Z,16.25
2019-05-21T20:35:02.565Z,17.27
2019-05-21T20:40:03.156Z,15.58
2019-05-21T20:45:02.643Z,13.98
2019-05-21T20:50:03.197Z,13.93
2019-05-21T20:55:02.707Z,15.28
2019-05-21T21:00:03.290Z,12.10
2019-05-21T21:05:02.892Z,12.10
2019-05-21T21:10:02.545Z,13.40
2019-05-21T21:15:03.116Z,13.62
2019-05-21T21:20:02.604Z,15.13
2019-05-21T21:25:03.162Z,11.22
2019-05-21T21:30:02.637Z,10.23
2019-05-21T21:35:02.447Z,0
2019-05-21T21:40:03.006Z,10.43
2019-05-21T21:45:02.550Z,11.57
2019-05-21T21:50:03.100Z,9.70
2019-05-21T21:55:02.594Z,8.90
2019-05-21T22:00:06.099Z,8.78
2019-05-21T22:05:02.711Z,10.15
2019-05-21T22:10:03.278Z,8.95
2019-05-21T22:15:02.759Z,7.97
2019-05-21T22:20:03.264Z,8.40
2019-05-21T22:25:02.812Z,9.98
2019-05-21T22:30:03.395Z,10.15
2019-05-21T22:35:02.869Z,8.95
2019-05-21T22:40:03.450Z,10.53
2019-05-21T22:45:08.333Z,12.47
2019-05-21T22:50:03.402Z,10.95
2019-05-21T22:55:02.909Z,11.12
2019-05-21T23:00:08.209Z,12.88
2019-05-21T23:05:02.573Z,12.20
2019-05-21T23:10:03.117Z,15.03
2019-05-21T23:15:02.670Z,11.97
2019-05-21T23:20:03.192Z,13.60
2019-05-21T23:25:02.718Z,12.73
2019-05-21T23:30:03.256Z,11.53
2019-05-21T23:35:02.736Z,10.63
2019-05-21T23:40:03.220Z,12.68
2019-05-21T23:45:02.749Z,11.63
2019-05-21T23:50:03.244Z,13.58
2019-05-21T23:55:02.696Z,9.93
